sensor_id;sensor_type;location;lat;lon;timestamp;pressure;altitude;pressure_sealevel;temperature;humidity
47166;BME280;32930;51.112;13.762;2023-01-19T00:01:30;98106.97;;;1.20;79.49
47166;BME280;32930;51.112;13.762;2023-01-19T00:03:55;98114.66;;;1.24;79.72
47166;BME280;32930;51.112;13.762;2023-01-19T00:06:21;98114.16;;;1.00;79.64
47166;BME280;32930;51.112;13.762;2023-01-19T00:08:46;98118.63;;;1.11;79.05
47166;BME280;32930;51.112;13.762;2023-01-19T00:11:14;98118.56;;;1.08;78.51
47166;BME280;32930;51.112;13.762;2023-01-19T00:13:42;98115.84;;;0.99;78.27
47166;BME280;32930;51.112;13.762;2023-01-19T00:16:14;98121.00;;;1.05;79.06
47166;BME280;32930;51.112;13.762;2023-01-19T00:18:42;98117.53;;;1.00;78.96
47166;BME280;32930;51.112;13.762;2023-01-19T00:21:08;98113.50;;;1.08;79.05
47166;BME280;32930;51.112;13.762;2023-01-19T00:23:33;98120.91;;;0.99;78.27
47166;BME280;32930;51.112;13.762;2023-01-19T00:25:59;98126.59;;;0.89;77.84
47166;BME280;32930;51.112;13.762;2023-01-19T00:28:24;98133.97;;;0.81;78.24
47166;BME280;32930;51.112;13.762;2023-01-19T00:30:50;98130.03;;;0.94;78.39
47166;BME280;32930;51.112;13.762;2023-01-19T00:33:16;98132.97;;;1.14;78.70
47166;BME280;32930;51.112;13.762;2023-01-19T00:35:42;98135.16;;;0.97;78.03
47166;BME280;32930;51.112;13.762;2023-01-19T00:38:09;98131.50;;;0.83;77.95
47166;BME280;32930;51.112;13.762;2023-01-19T00:40:35;98132.16;;;0.73;76.96
47166;BME280;32930;51.112;13.762;2023-01-19T00:43:00;98139.66;;;0.69;78.09
47166;BME280;32930;51.112;13.762;2023-01-19T00:45:27;98136.25;;;0.69;77.58
47166;BME280;32930;51.112;13.762;2023-01-19T00:47:52;98138.47;;;0.54;77.22
47166;BME280;32930;51.112;13.762;2023-01-19T00:50:22;98141.28;;;0.67;77.79
47166;BME280;32930;51.112;13.762;2023-01-19T00:52:48;98148.16;;;0.75;77.17
47166;BME280;32930;51.112;13.762;2023-01-19T00:55:15;98154.03;;;0.75;77.15
47166;BME280;32930;51.112;13.762;2023-01-19T00:57:42;98150.53;;;0.67;76.85
47166;BME280;32930;51.112;13.762;2023-01-19T01:00:11;98148.66;;;0.58;76.55
47166;BME280;32930;51.112;13.762;2023-01-19T01:02:38;98164.91;;;0.71;76.82
47166;BME280;32930;51.112;13.762;2023-01-19T02:11:30;98193.34;;;0.28;75.96
47166;BME280;32930;51.112;13.762;2023-01-19T02:14:15;98197.59;;;0.29;76.15
47166;BME280;32930;51.112;13.762;2023-01-19T02:16:41;98197.22;;;0.13;75.22
47166;BME280;32930;51.112;13.762;2023-01-19T02:19:13;98196.22;;;0.08;75.28
47166;BME280;32930;51.112;13.762;2023-01-19T02:22:03;98196.09;;;0.02;75.41
47166;BME280;32930;51.112;13.762;2023-01-19T02:24:32;98194.22;;;-0.05;75.01
47166;BME280;32930;51.112;13.762;2023-01-19T02:26:59;98200.25;;;0.00;75.31
47166;BME280;32930;51.112;13.762;2023-01-19T02:29:26;98203.31;;;-0.12;74.66
47166;BME280;32930;51.112;13.762;2023-01-19T02:31:53;98210.28;;;-0.02;74.90
47166;BME280;32930;51.112;13.762;2023-01-19T02:34:20;98210.88;;;-0.10;74.47
47166;BME280;32930;51.112;13.762;2023-01-19T02:36:53;98216.91;;;-0.05;75.47
47166;BME280;32930;51.112;13.762;2023-01-19T02:42:14;98218.22;;;-0.19;73.94
47166;BME280;32930;51.112;13.762;2023-01-19T02:44:45;98215.81;;;-0.15;74.48
47166;BME280;32930;51.112;13.762;2023-01-19T02:47:12;98206.44;;;-0.20;74.38
47166;BME280;32930;51.112;13.762;2023-01-19T02:49:39;98214.06;;;-0.17;74.02
47166;BME280;32930;51.112;13.762;2023-01-19T02:52:05;98204.66;;;-0.25;74.14
47166;BME280;32930;51.112;13.762;2023-01-19T03:02:40;98217.50;;;-0.47;74.64
47166;BME280;32930;51.112;13.762;2023-01-19T03:10:22;98217.84;;;-0.33;73.90
47166;BME280;32930;51.112;13.762;2023-01-19T03:13:09;98219.97;;;-0.49;74.17
47166;BME280;32930;51.112;13.762;2023-01-19T03:15:42;98218.66;;;-0.66;74.57
47166;BME280;32930;51.112;13.762;2023-01-19T03:18:12;98221.44;;;-0.57;74.32
47166;BME280;32930;51.112;13.762;2023-01-19T03:20:40;98227.94;;;-0.63;73.65
47166;BME280;32930;51.112;13.762;2023-01-19T03:23:11;98225.16;;;-0.44;74.33
47166;BME280;32930;51.112;13.762;2023-01-19T03:25:42;98230.69;;;-0.56;73.89
47166;BME280;32930;51.112;13.762;2023-01-19T03:28:08;98228.81;;;-0.63;73.25
47166;BME280;32930;51.112;13.762;2023-01-19T03:30:39;98238.47;;;-0.77;73.09
47166;BME280;32930;51.112;13.762;2023-01-19T03:33:30;98241.88;;;-0.46;73.35
47166;BME280;32930;51.112;13.762;2023-01-19T03:36:01;98246.72;;;-0.82;72.91
47166;BME280;32930;51.112;13.762;2023-01-19T03:38:34;98243.50;;;-0.77;72.87
47166;BME280;32930;51.112;13.762;2023-01-19T03:41:06;98259.28;;;-0.54;74.07
47166;BME280;32930;51.112;13.762;2023-01-19T03:43:35;98250.41;;;-0.41;73.08
47166;BME280;32930;51.112;13.762;2023-01-19T03:46:04;98248.97;;;-0.63;73.44
47166;BME280;32930;51.112;13.762;2023-01-19T03:48:31;98247.66;;;-0.49;74.07
47166;BME280;32930;51.112;13.762;2023-01-19T03:50:57;98254.97;;;-0.58;73.79
47166;BME280;32930;51.112;13.762;2023-01-19T03:53:26;98255.09;;;-0.53;74.82
47166;BME280;32930;51.112;13.762;2023-01-19T03:55:52;98258.47;;;-0.53;74.66
47166;BME280;32930;51.112;13.762;2023-01-19T03:58:18;98253.97;;;-0.01;74.22
47166;BME280;32930;51.112;13.762;2023-01-19T04:00:44;98245.81;;;0.08;73.85
47166;BME280;32930;51.112;13.762;2023-01-19T04:03:13;98255.81;;;-0.57;74.18
47166;BME280;32930;51.112;13.762;2023-01-19T04:05:39;98260.56;;;-0.38;74.48
47166;BME280;32930;51.112;13.762;2023-01-19T04:08:05;98262.34;;;-0.34;74.15
47166;BME280;32930;51.112;13.762;2023-01-19T04:10:31;98259.28;;;-0.24;74.32
47166;BME280;32930;51.112;13.762;2023-01-19T04:12:58;98257.56;;;-0.25;73.62
47166;BME280;32930;51.112;13.762;2023-01-19T04:15:25;98265.28;;;-0.18;74.21
47166;BME280;32930;51.112;13.762;2023-01-19T04:17:51;98265.06;;;0.06;74.47
47166;BME280;32930;51.112;13.762;2023-01-19T04:20:16;98265.84;;;-0.29;73.37
47166;BME280;32930;51.112;13.762;2023-01-19T04:22:42;98261.63;;;0.02;74.02
47166;BME280;32930;51.112;13.762;2023-01-19T04:25:09;98258.59;;;0.15;73.38
47166;BME280;32930;51.112;13.762;2023-01-19T04:27:35;98250.03;;;-0.23;73.81
47166;BME280;32930;51.112;13.762;2023-01-19T04:30:01;98249.78;;;-0.01;74.75
47166;BME280;32930;51.112;13.762;2023-01-19T04:32:28;98252.88;;;-0.11;73.78
47166;BME280;32930;51.112;13.762;2023-01-19T04:34:54;98251.03;;;0.15;73.55
47166;BME280;32930;51.112;13.762;2023-01-19T04:37:20;98252.03;;;-0.11;72.89
47166;BME280;32930;51.112;13.762;2023-01-19T04:39:46;98251.19;;;0.21;72.57
47166;BME280;32930;51.112;13.762;2023-01-19T04:42:11;98248.38;;;-0.22;72.66
47166;BME280;32930;51.112;13.762;2023-01-19T04:44:37;98247.81;;;-0.12;73.26
47166;BME280;32930;51.112;13.762;2023-01-19T04:47:03;98242.69;;;-0.47;73.24
47166;BME280;32930;51.112;13.762;2023-01-19T04:49:29;98248.31;;;-0.56;73.88
47166;BME280;32930;51.112;13.762;2023-01-19T04:51:54;98260.06;;;-0.56;73.14
47166;BME280;32930;51.112;13.762;2023-01-19T04:54:20;98252.19;;;-0.37;72.32
47166;BME280;32930;51.112;13.762;2023-01-19T04:56:46;98265.66;;;-0.05;72.59
47166;BME280;32930;51.112;13.762;2023-01-19T04:59:11;98261.69;;;0.04;72.20
47166;BME280;32930;51.112;13.762;2023-01-19T05:01:37;98254.63;;;-0.40;72.10
47166;BME280;32930;51.112;13.762;2023-01-19T05:04:02;98255.66;;;-0.33;71.56
47166;BME280;32930;51.112;13.762;2023-01-19T05:06:30;98245.69;;;-0.29;71.57
47166;BME280;32930;51.112;13.762;2023-01-19T05:08:56;98254.22;;;-0.54;72.94
47166;BME280;32930;51.112;13.762;2023-01-19T05:11:22;98247.16;;;-0.67;72.78
47166;BME280;32930;51.112;13.762;2023-01-19T05:13:48;98240.25;;;-0.44;72.50
47166;BME280;32930;51.112;13.762;2023-01-19T05:16:13;98251.19;;;-0.42;71.08
47166;BME280;32930;51.112;13.762;2023-01-19T05:18:39;98249.28;;;-0.20;70.49
47166;BME280;32930;51.112;13.762;2023-01-19T05:21:06;98252.56;;;-0.23;71.01
47166;BME280;32930;51.112;13.762;2023-01-19T05:23:32;98247.06;;;-0.40;71.62
47166;BME280;32930;51.112;13.762;2023-01-19T05:25:58;98250.69;;;-0.60;71.85
47166;BME280;32930;51.112;13.762;2023-01-19T05:28:28;98246.41;;;-0.33;72.15
47166;BME280;32930;51.112;13.762;2023-01-19T05:30:54;98240.63;;;-0.30;70.71
47166;BME280;32930;51.112;13.762;2023-01-19T05:33:21;98241.75;;;0.13;68.83
47166;BME280;32930;51.112;13.762;2023-01-19T05:35:51;98249.78;;;-0.01;69.62
47166;BME280;32930;51.112;13.762;2023-01-19T05:38:18;98240.47;;;-0.35;70.08
47166;BME280;32930;51.112;13.762;2023-01-19T05:40:44;98240.28;;;-0.42;71.42
47166;BME280;32930;51.112;13.762;2023-01-19T05:43:10;98237.84;;;-0.39;70.75
47166;BME280;32930;51.112;13.762;2023-01-19T05:45:35;98239.69;;;-0.34;71.25
47166;BME280;32930;51.112;13.762;2023-01-19T05:48:05;98240.59;;;-0.62;71.16
47166;BME280;32930;51.112;13.762;2023-01-19T05:50:31;98239.34;;;-0.76;71.79
47166;BME280;32930;51.112;13.762;2023-01-19T05:52:57;98240.69;;;-0.57;72.34
47166;BME280;32930;51.112;13.762;2023-01-19T05:55:25;98240.59;;;-0.62;71.81
47166;BME280;32930;51.112;13.762;2023-01-19T05:57:50;98245.44;;;-0.68;72.26
47166;BME280;32930;51.112;13.762;2023-01-19T06:00:16;98250.44;;;-0.70;72.54
47166;BME280;32930;51.112;13.762;2023-01-19T06:02:42;98241.84;;;-0.76;71.97
47166;BME280;32930;51.112;13.762;2023-01-19T06:05:08;98250.00;;;-0.85;72.22
47166;BME280;32930;51.112;13.762;2023-01-19T06:07:34;98247.25;;;-0.93;71.61
47166;BME280;32930;51.112;13.762;2023-01-19T06:10:00;98258.06;;;-0.95;71.79
47166;BME280;32930;51.112;13.762;2023-01-19T06:12:25;98256.72;;;-1.12;71.82
47166;BME280;32930;51.112;13.762;2023-01-19T06:14:51;98256.72;;;-1.12;71.76
47166;BME280;32930;51.112;13.762;2023-01-19T06:17:17;98250.34;;;-1.01;72.35
47166;BME280;32930;51.112;13.762;2023-01-19T06:19:42;98249.31;;;-1.08;71.06
47166;BME280;32930;51.112;13.762;2023-01-19T06:22:08;98254.97;;;-1.15;71.01
47166;BME280;32930;51.112;13.762;2023-01-19T06:24:34;98263.44;;;-1.13;71.89
47166;BME280;32930;51.112;13.762;2023-01-19T06:26:59;98269.59;;;-1.03;71.86
47166;BME280;32930;51.112;13.762;2023-01-19T06:29:26;98273.78;;;-1.31;72.17
47166;BME280;32930;51.112;13.762;2023-01-19T06:31:52;98274.16;;;-1.19;71.29
47166;BME280;32930;51.112;13.762;2023-01-19T06:34:18;98275.09;;;-1.15;72.24
47166;BME280;32930;51.112;13.762;2023-01-19T06:36:44;98284.63;;;-1.05;71.40
47166;BME280;32930;51.112;13.762;2023-01-19T06:39:11;98284.22;;;-1.19;71.36
47166;BME280;32930;51.112;13.762;2023-01-19T06:41:36;98290.50;;;-0.77;71.12
47166;BME280;32930;51.112;13.762;2023-01-19T06:44:03;98301.06;;;-0.89;71.34
47166;BME280;32930;51.112;13.762;2023-01-19T06:46:29;98305.16;;;-1.20;71.26
47166;BME280;32930;51.112;13.762;2023-01-19T06:48:54;98310.56;;;-1.07;72.21
47166;BME280;32930;51.112;13.762;2023-01-19T06:51:21;98297.31;;;-1.02;71.08
47166;BME280;32930;51.112;13.762;2023-01-19T06:53:47;98307.75;;;-0.89;71.34
47166;BME280;32930;51.112;13.762;2023-01-19T06:56:12;98317.25;;;-1.08;72.14
47166;BME280;32930;51.112;13.762;2023-01-19T06:58:38;98311.03;;;-0.92;70.99
47166;BME280;32930;51.112;13.762;2023-01-19T07:01:05;98307.28;;;-0.78;70.47
47166;BME280;32930;51.112;13.762;2023-01-19T07:03:37;98309.78;;;-0.78;70.01
47166;BME280;32930;51.112;13.762;2023-01-19T07:06:06;98313.47;;;-0.66;70.79
47166;BME280;32930;51.112;13.762;2023-01-19T07:08:33;98316.59;;;-0.75;70.96
47166;BME280;32930;51.112;13.762;2023-01-19T07:11:06;98310.38;;;-0.58;69.48
47166;BME280;32930;51.112;13.762;2023-01-19T07:13:32;98316.75;;;-0.40;69.75
47166;BME280;32930;51.112;13.762;2023-01-19T07:16:02;98309.88;;;-0.46;68.37
47166;BME280;32930;51.112;13.762;2023-01-19T07:18:29;98311.97;;;-0.31;68.22
47166;BME280;32930;51.112;13.762;2023-01-19T07:20:56;98310.00;;;-0.41;68.70
47166;BME280;32930;51.112;13.762;2023-01-19T07:23:22;98320.53;;;-0.55;68.59
47166;BME280;32930;51.112;13.762;2023-01-19T07:25:47;98322.34;;;-0.20;68.34
47166;BME280;32930;51.112;13.762;2023-01-19T07:28:13;98318.34;;;-0.44;67.92
47166;BME280;32930;51.112;13.762;2023-01-19T07:30:41;98317.47;;;-0.14;67.73
47166;BME280;32930;51.112;13.762;2023-01-19T07:33:07;98318.59;;;-0.05;67.17
47166;BME280;32930;51.112;13.762;2023-01-19T07:35:33;98325.97;;;-0.11;67.62
47166;BME280;32930;51.112;13.762;2023-01-19T07:37:58;98328.91;;;0.05;67.69
47166;BME280;32930;51.112;13.762;2023-01-19T07:40:24;98330.22;;;-0.38;68.76
47166;BME280;32930;51.112;13.762;2023-01-19T07:42:50;98323.97;;;-0.22;68.00
47166;BME280;32930;51.112;13.762;2023-01-19T07:45:17;98326.13;;;-0.06;67.21
47166;BME280;32930;51.112;13.762;2023-01-19T07:47:46;98326.47;;;-0.22;68.80
47166;BME280;32930;51.112;13.762;2023-01-19T07:50:15;98332.00;;;-0.06;68.44
47166;BME280;32930;51.112;13.762;2023-01-19T07:52:42;98332.78;;;-0.08;68.02
47166;BME280;32930;51.112;13.762;2023-01-19T07:55:09;98329.63;;;-0.31;68.46
47166;BME280;32930;51.112;13.762;2023-01-19T07:57:35;98326.09;;;-0.36;68.80
47166;BME280;32930;51.112;13.762;2023-01-19T08:00:02;98339.94;;;0.08;68.16
47166;BME280;32930;51.112;13.762;2023-01-19T08:02:28;98342.63;;;0.14;67.34
47166;BME280;32930;51.112;13.762;2023-01-19T08:04:54;98338.41;;;0.13;66.70
47166;BME280;32930;51.112;13.762;2023-01-19T08:07:19;98346.06;;;0.18;67.16
47166;BME280;32930;51.112;13.762;2023-01-19T08:09:45;98346.41;;;0.30;66.95
47166;BME280;32930;51.112;13.762;2023-01-19T08:12:23;98345.09;;;0.44;67.46
47166;BME280;32930;51.112;13.762;2023-01-19T08:14:48;98345.19;;;0.48;67.34
47166;BME280;32930;51.112;13.762;2023-01-19T08:17:14;98352.03;;;0.20;67.62
47166;BME280;32930;51.112;13.762;2023-01-19T08:19:41;98356.53;;;0.00;69.09
47166;BME280;32930;51.112;13.762;2023-01-19T08:22:06;98352.75;;;0.16;69.41
47166;BME280;32930;51.112;13.762;2023-01-19T08:24:32;98361.94;;;0.14;69.22
47166;BME280;32930;51.112;13.762;2023-01-19T08:27:01;98366.91;;;0.11;69.79
47166;BME280;32930;51.112;13.762;2023-01-19T08:29:28;98372.03;;;0.15;69.52
47166;BME280;32930;51.112;13.762;2023-01-19T08:31:56;98370.81;;;0.64;68.78
47166;BME280;32930;51.112;13.762;2023-01-19T08:34:24;98376.72;;;0.65;68.63
47166;BME280;32930;51.112;13.762;2023-01-19T08:36:50;98369.75;;;0.56;69.15
47166;BME280;32930;51.112;13.762;2023-01-19T08:39:15;98375.59;;;0.87;68.02
47166;BME280;32930;51.112;13.762;2023-01-19T08:41:42;98371.00;;;1.05;67.46
47166;BME280;32930;51.112;13.762;2023-01-19T08:44:08;98373.47;;;1.04;67.74
47166;BME280;32930;51.112;13.762;2023-01-19T08:46:36;98373.72;;;1.14;67.80
47166;BME280;32930;51.112;13.762;2023-01-19T08:49:01;98370.81;;;1.35;67.05
47166;BME280;32930;51.112;13.762;2023-01-19T08:51:27;98369.66;;;1.21;67.79
47166;BME280;32930;51.112;13.762;2023-01-19T08:53:53;98370.72;;;1.29;66.76
47166;BME280;32930;51.112;13.762;2023-01-19T08:56:19;98377.28;;;1.23;67.58
47166;BME280;32930;51.112;13.762;2023-01-19T08:58:45;98373.31;;;1.34;67.02
47166;BME280;32930;51.112;13.762;2023-01-19T09:01:12;98372.28;;;1.26;68.01
47166;BME280;32930;51.112;13.762;2023-01-19T09:03:39;98371.84;;;1.42;68.18
47166;BME280;32930;51.112;13.762;2023-01-19T09:06:09;98368.97;;;1.65;68.65
47166;BME280;32930;51.112;13.762;2023-01-19T09:08:35;98366.09;;;1.49;68.65
47166;BME280;32930;51.112;13.762;2023-01-19T09:11:01;98374.28;;;1.77;67.88
47166;BME280;32930;51.112;13.762;2023-01-19T09:13:27;98367.69;;;1.85;67.29
47166;BME280;32930;51.112;13.762;2023-01-19T09:15:53;98379.34;;;1.77;67.03
47166;BME280;32930;51.112;13.762;2023-01-19T09:18:20;98374.28;;;1.78;67.91
47166;BME280;32930;51.112;13.762;2023-01-19T09:20:48;98369.41;;;1.86;67.35
47166;BME280;32930;51.112;13.762;2023-01-19T09:23:19;98371.03;;;1.84;67.07
47166;BME280;32930;51.112;13.762;2023-01-19T09:25:45;98373.25;;;2.09;66.54
47166;BME280;32930;51.112;13.762;2023-01-19T09:28:13;98370.00;;;2.17;66.42
47166;BME280;32930;51.112;13.762;2023-01-19T09:30:40;98377.00;;;1.86;68.44
47166;BME280;32930;51.112;13.762;2023-01-19T09:33:09;98371.97;;;1.88;66.68
47166;BME280;32930;51.112;13.762;2023-01-19T09:35:37;98381.91;;;2.22;66.20
47166;BME280;32930;51.112;13.762;2023-01-19T09:38:03;98377.72;;;1.80;67.77
47166;BME280;32930;51.112;13.762;2023-01-19T09:40:29;98380.94;;;2.16;67.11
47166;BME280;32930;51.112;13.762;2023-01-19T09:48:34;98380.06;;;1.71;71.04
47166;BME280;32930;51.112;13.762;2023-01-19T09:51:06;98372.03;;;1.92;69.06
47166;BME280;32930;51.112;13.762;2023-01-19T09:56:29;98364.75;;;2.07;68.20
47166;BME280;32930;51.112;13.762;2023-01-19T09:58:57;98368.97;;;2.07;68.89
47166;BME280;32930;51.112;13.762;2023-01-19T10:04:30;98362.63;;;2.27;68.35
47166;BME280;32930;51.112;13.762;2023-01-19T10:07:09;98366.59;;;2.15;70.19
47166;BME280;32930;51.112;13.762;2023-01-19T10:12:59;98358.50;;;2.32;68.92
47166;BME280;32930;51.112;13.762;2023-01-19T10:18:22;98361.31;;;2.48;68.94
47166;BME280;32930;51.112;13.762;2023-01-19T10:23:52;98369.19;;;2.65;69.05
47166;BME280;32930;51.112;13.762;2023-01-19T10:26:42;98360.63;;;2.57;67.90
47166;BME280;32930;51.112;13.762;2023-01-19T10:29:35;98355.34;;;2.44;69.53
47166;BME280;32930;51.112;13.762;2023-01-19T10:34:45;98361.38;;;2.51;69.59
47166;BME280;32930;51.112;13.762;2023-01-19T10:39:51;98355.94;;;2.78;68.87
47166;BME280;32930;51.112;13.762;2023-01-19T10:42:18;98359.78;;;2.56;70.94
47166;BME280;32930;51.112;13.762;2023-01-19T10:44:44;98362.41;;;2.62;71.64
47166;BME280;32930;51.112;13.762;2023-01-19T10:47:20;98360.81;;;2.67;71.44
47166;BME280;32930;51.112;13.762;2023-01-19T10:49:47;98353.75;;;2.49;72.92
47166;BME280;32930;51.112;13.762;2023-01-19T10:52:30;98353.16;;;2.63;73.39
47166;BME280;32930;51.112;13.762;2023-01-19T10:54:59;98348.81;;;3.07;70.85
47166;BME280;32930;51.112;13.762;2023-01-19T10:57:31;98350.28;;;2.94;70.48
47166;BME280;32930;51.112;13.762;2023-01-19T11:00:01;98345.34;;;3.02;67.63
47166;BME280;32930;51.112;13.762;2023-01-19T11:02:28;98346.59;;;3.29;69.62
47166;BME280;32930;51.112;13.762;2023-01-19T11:04:58;98351.47;;;3.16;69.76
47166;BME280;32930;51.112;13.762;2023-01-19T11:07:29;98346.22;;;3.04;69.27
47166;BME280;32930;51.112;13.762;2023-01-19T11:13:02;98348.38;;;3.37;69.20
47166;BME280;32930;51.112;13.762;2023-01-19T11:15:42;98345.25;;;3.54;69.93
47166;BME280;32930;51.112;13.762;2023-01-19T11:18:30;98344.28;;;3.45;70.22
47166;BME280;32930;51.112;13.762;2023-01-19T11:21:05;98337.25;;;3.88;68.93
47166;BME280;32930;51.112;13.762;2023-01-19T11:23:34;98334.78;;;3.94;68.96
47166;BME280;32930;51.112;13.762;2023-01-19T11:28:54;98332.94;;;3.83;69.12
47166;BME280;32930;51.112;13.762;2023-01-19T11:33:55;98336.22;;;3.72;70.86
47166;BME280;32930;51.112;13.762;2023-01-19T11:36:27;98346.59;;;3.91;69.18
47166;BME280;32930;51.112;13.762;2023-01-19T11:38:56;98344.16;;;4.02;69.02
47166;BME280;32930;51.112;13.762;2023-01-19T11:41:25;98344.13;;;4.00;67.56
47166;BME280;32930;51.112;13.762;2023-01-19T11:43:54;98344.78;;;3.82;69.59
47166;BME280;32930;51.112;13.762;2023-01-19T11:46:23;98340.72;;;3.97;66.41
47166;BME280;32930;51.112;13.762;2023-01-19T11:49:14;98343.25;;;3.97;68.74
47166;BME280;32930;51.112;13.762;2023-01-19T11:51:57;98341.84;;;4.20;67.83
47166;BME280;32930;51.112;13.762;2023-01-19T11:54:45;98346.91;;;4.22;68.50
47166;BME280;32930;51.112;13.762;2023-01-19T11:57:15;98346.06;;;4.21;67.47
47166;BME280;32930;51.112;13.762;2023-01-19T11:59:45;98339.16;;;4.09;66.55
47166;BME280;32930;51.112;13.762;2023-01-19T12:02:27;98349.59;;;4.32;67.17
47166;BME280;32930;51.112;13.762;2023-01-19T12:04:59;98342.66;;;4.19;66.73
47166;BME280;32930;51.112;13.762;2023-01-19T12:07:33;98344.50;;;4.32;67.18
47166;BME280;32930;51.112;13.762;2023-01-19T12:10:24;98344.38;;;4.22;67.20
47166;BME280;32930;51.112;13.762;2023-01-19T12:12:52;98345.25;;;4.25;67.78
47166;BME280;32930;51.112;13.762;2023-01-19T12:15:41;98351.28;;;4.33;67.57
47166;BME280;32930;51.112;13.762;2023-01-19T12:18:18;98348.00;;;4.44;65.35
47166;BME280;32930;51.112;13.762;2023-01-19T12:20:50;98345.97;;;4.12;67.83
47166;BME280;32930;51.112;13.762;2023-01-19T12:26:30;98348.31;;;3.95;69.86
47166;BME280;32930;51.112;13.762;2023-01-19T12:29:24;98348.72;;;4.29;69.08
47166;BME280;32930;51.112;13.762;2023-01-19T12:37:06;98343.88;;;4.55;66.03
47166;BME280;32930;51.112;13.762;2023-01-19T12:39:52;98346.34;;;4.46;65.92
47166;BME280;32930;51.112;13.762;2023-01-19T12:42:19;98345.25;;;4.24;68.69
47166;BME280;32930;51.112;13.762;2023-01-19T12:44:46;98341.97;;;4.34;66.27
47166;BME280;32930;51.112;13.762;2023-01-19T12:52:19;98337.28;;;3.93;71.98
47166;BME280;32930;51.112;13.762;2023-01-19T13:02:55;98336.97;;;4.40;67.67
47166;BME280;32930;51.112;13.762;2023-01-19T13:11:11;98337.66;;;4.25;69.84
47166;BME280;32930;51.112;13.762;2023-01-19T13:18:59;98322.38;;;4.21;67.17
47166;BME280;32930;51.112;13.762;2023-01-19T13:24:05;98320.72;;;4.24;66.23
47166;BME280;32930;51.112;13.762;2023-01-19T13:26:34;98318.63;;;3.85;67.74
47166;BME280;32930;51.112;13.762;2023-01-19T13:29:14;98318.91;;;4.12;66.74
47166;BME280;32930;51.112;13.762;2023-01-19T13:31:43;98321.81;;;3.70;70.74
47166;BME280;32930;51.112;13.762;2023-01-19T13:34:16;98335.28;;;3.66;71.13
47166;BME280;32930;51.112;13.762;2023-01-19T13:36:50;98333.88;;;3.88;71.27
47166;BME280;32930;51.112;13.762;2023-01-19T13:41:53;98336.13;;;3.68;72.14
47166;BME280;32930;51.112;13.762;2023-01-19T13:44:36;98343.09;;;3.84;71.60
47166;BME280;32930;51.112;13.762;2023-01-19T13:47:11;98341.28;;;3.74;71.35
47166;BME280;32930;51.112;13.762;2023-01-19T13:49:43;98341.94;;;3.58;73.13
47166;BME280;32930;51.112;13.762;2023-01-19T13:55:11;98335.38;;;3.72;70.56
47166;BME280;32930;51.112;13.762;2023-01-19T13:57:46;98349.34;;;3.45;72.52
47166;BME280;32930;51.112;13.762;2023-01-19T14:00:16;98348.56;;;3.48;72.36
47166;BME280;32930;51.112;13.762;2023-01-19T14:05:32;98350.88;;;3.33;71.26
47166;BME280;32930;51.112;13.762;2023-01-19T14:10:27;98349.88;;;3.23;73.33
47166;BME280;32930;51.112;13.762;2023-01-19T14:13:04;98340.81;;;3.39;71.57
47166;BME280;32930;51.112;13.762;2023-01-19T14:15:32;98340.09;;;3.47;71.56
47166;BME280;32930;51.112;13.762;2023-01-19T14:21:08;98343.44;;;3.45;70.61
47166;BME280;32930;51.112;13.762;2023-01-19T14:24:04;98351.56;;;3.22;71.61
47166;BME280;32930;51.112;13.762;2023-01-19T14:29:29;98363.16;;;3.08;73.13
47166;BME280;32930;51.112;13.762;2023-01-19T14:32:11;98366.44;;;3.01;72.92
47166;BME280;32930;51.112;13.762;2023-01-19T14:34:47;98358.09;;;3.07;73.53
47166;BME280;32930;51.112;13.762;2023-01-19T14:37:28;98361.06;;;2.81;71.60
47166;BME280;32930;51.112;13.762;2023-01-19T14:42:26;98352.97;;;3.05;71.60
47166;BME280;32930;51.112;13.762;2023-01-19T14:44:55;98362.91;;;2.91;73.12
47166;BME280;32930;51.112;13.762;2023-01-19T14:47:39;98360.47;;;2.97;73.04
47166;BME280;32930;51.112;13.762;2023-01-19T14:50:25;98358.63;;;2.87;73.65
47166;BME280;32930;51.112;13.762;2023-01-19T14:52:56;98362.81;;;2.87;74.63
47166;BME280;32930;51.112;13.762;2023-01-19T14:55:30;98360.28;;;2.87;74.12
47166;BME280;32930;51.112;13.762;2023-01-19T14:57:57;98362.69;;;2.79;74.70
47166;BME280;32930;51.112;13.762;2023-01-19T15:00:23;98365.88;;;2.67;74.72
47166;BME280;32930;51.112;13.762;2023-01-19T15:02:48;98368.50;;;2.72;75.82
47166;BME280;32930;51.112;13.762;2023-01-19T15:05:15;98373.34;;;2.61;74.64
47166;BME280;32930;51.112;13.762;2023-01-19T15:07:43;98374.66;;;2.88;73.13
47166;BME280;32930;51.112;13.762;2023-01-19T15:10:21;98370.97;;;2.69;72.95
47166;BME280;32930;51.112;13.762;2023-01-19T15:12:50;98373.47;;;2.67;74.54
47166;BME280;32930;51.112;13.762;2023-01-19T15:15:20;98376.00;;;2.67;75.61
47166;BME280;32930;51.112;13.762;2023-01-19T15:17:49;98381.09;;;2.69;75.75
47166;BME280;32930;51.112;13.762;2023-01-19T15:20:18;98389.38;;;2.59;75.76
47166;BME280;32930;51.112;13.762;2023-01-19T15:22:44;98385.00;;;2.51;75.50
47166;BME280;32930;51.112;13.762;2023-01-19T15:25:19;98383.41;;;2.57;75.22
47166;BME280;32930;51.112;13.762;2023-01-19T15:27:46;98391.78;;;2.52;74.51
47166;BME280;32930;51.112;13.762;2023-01-19T15:30:19;98388.34;;;2.50;73.16
47166;BME280;32930;51.112;13.762;2023-01-19T15:32:46;98386.69;;;2.51;72.80
47166;BME280;32930;51.112;13.762;2023-01-19T15:35:13;98395.84;;;2.44;72.33
47166;BME280;32930;51.112;13.762;2023-01-19T15:37:39;98401.19;;;2.60;72.80
47166;BME280;32930;51.112;13.762;2023-01-19T15:40:05;98389.09;;;2.45;72.51
47166;BME280;32930;51.112;13.762;2023-01-19T15:42:31;98401.78;;;2.46;72.92
47166;BME280;32930;51.112;13.762;2023-01-19T15:44:57;98401.03;;;2.52;72.55
47166;BME280;32930;51.112;13.762;2023-01-19T15:47:23;98396.84;;;2.52;74.17
47166;BME280;32930;51.112;13.762;2023-01-19T15:49:49;98395.34;;;2.64;71.24
47166;BME280;32930;51.112;13.762;2023-01-19T15:52:14;98402.09;;;2.63;73.16
47166;BME280;32930;51.112;13.762;2023-01-19T15:54:40;98406.91;;;2.51;72.47
47166;BME280;32930;51.112;13.762;2023-01-19T15:57:05;98406.97;;;2.54;73.66